Portada
METAR-TAF:

METAR-TAF

Aeroports :

Fergana, Uzbekistan

latitud: 40-21-32N, longitud: 071-44-42E, altitud: 625 m

Observació

L'informe es va fer fa 17 minuts, a les 09:00 UTC
Vent 2 kt amb direcció variable
Temperatura 13°C
Humitat 30%
Pressió 1024 hPa
Visibilitat: 8000 m

METAR: UTFF 120900Z VRB02KT 8000 NSC 13/M04 Q1024 R18/CLRD70

Hora: 14:17 (09:17 UTC)

Pronòstic

L'informe es va fer fa 3 hores i 17 minuts, a les 06:00 UTC
Pronòstic vàlid del 12 a les 07 UTC al 12 a les 16 UTC
Vent 10 kt del Nord/Nord-Oest
Visibilitat: 7000 m
Temporalment
l' 12 a les 07 UTC al 12 a les 13 UTC
Vent 14 kt del Est/Nord-Est
Visibilitat: 5000 m
boirina

TAF: UTFF 120600Z 1207/1216 34010KT 7000 NSC TEMPO 1207/1213 06014KT 5000 BR

Observacions i pronòstics meteorològics de més de 4000 aeroports (METAR i TAF).

Les estacions disponibles són els punts grocs i vermells al mapa.

Posi el ratolí al punt desitjat per veure el nom de l'estació.

Feu clic per veure les observacions i els pronòstics meteorològics.

Per canviar el mapa: feu clic els botons verds amb una creu de color negre per apropar; al botó verd amb un guió per allunyar la imatge; o en les fletxes verdes per a mapes adjacents.


METAR-TAF: